createdAt,value
2022-08-31T00:00:57.679Z,64.34
2022-08-31T00:01:55.300Z,64.34
2022-08-31T00:02:55.251Z,64.34
2022-08-31T00:03:55.265Z,64.34
2022-08-31T00:04:55.289Z,64.34
2022-08-31T00:05:55.223Z,64.34
2022-08-31T00:06:55.209Z,64.34
2022-08-31T00:07:55.723Z,64.34
2022-08-31T00:08:55.187Z,64.34
2022-08-31T00:09:55.196Z,64.34
2022-08-31T00:10:55.166Z,64.24
2022-08-31T00:11:55.179Z,64.34
2022-08-31T00:12:57.473Z,64.34
2022-08-31T00:13:55.141Z,64.34
2022-08-31T00:14:55.123Z,64.34
2022-08-31T00:15:55.147Z,64.24
2022-08-31T00:16:55.199Z,64.34
2022-08-31T00:17:55.092Z,64.34
2022-08-31T00:18:55.098Z,64.34
2022-08-31T00:19:55.070Z,64.34
2022-08-31T00:20:55.058Z,64.34
2022-08-31T00:21:55.075Z,64.34
2022-08-31T00:22:55.038Z,64.24
2022-08-31T00:23:55.028Z,64.34
2022-08-31T00:24:55.015Z,64.34
2022-08-31T00:25:55.007Z,64.34
2022-08-31T00:26:54.994Z,64.34
2022-08-31T00:27:55.005Z,64.34
2022-08-31T00:28:54.972Z,64.34
2022-08-31T00:29:54.963Z,64.34
2022-08-31T00:30:54.969Z,64.37
2022-08-31T00:31:55.033Z,64.34
2022-08-31T00:32:58.101Z,64.34
2022-08-31T00:33:54.921Z,64.34
2022-08-31T00:34:54.909Z,64.37
2022-08-31T00:35:54.900Z,64.37
2022-08-31T00:36:54.907Z,64.34
2022-08-31T00:37:54.881Z,64.34
2022-08-31T00:38:54.866Z,64.37
2022-08-31T00:39:54.856Z,64.37
2022-08-31T00:40:54.877Z,64.34
2022-08-31T00:41:54.854Z,64.37
2022-08-31T00:42:54.851Z,64.34
2022-08-31T00:43:54.812Z,64.34
2022-08-31T00:44:54.801Z,64.37
2022-08-31T00:45:54.906Z,64.34
2022-08-31T00:46:54.779Z,64.34
2022-08-31T00:47:54.771Z,64.34
2022-08-31T00:48:54.777Z,64.37
2022-08-31T00:49:54.750Z,64.34
2022-08-31T00:50:54.735Z,64.34
2022-08-31T00:51:54.727Z,64.37
2022-08-31T00:52:54.717Z,64.37
2022-08-31T00:53:54.724Z,64.37
2022-08-31T00:54:54.693Z,64.34
2022-08-31T00:55:54.682Z,64.37
2022-08-31T00:56:54.676Z,64.37
2022-08-31T00:57:54.661Z,64.34
2022-08-31T00:58:55.131Z,64.37
2022-08-31T00:59:54.639Z,64.34
2022-08-31T01:00:54.690Z,64.34
2022-08-31T01:01:54.688Z,64.34
2022-08-31T01:02:54.628Z,64.37
2022-08-31T01:03:54.620Z,64.34
2022-08-31T01:04:54.588Z,64.37
2022-08-31T01:05:54.576Z,64.37
2022-08-31T01:06:54.564Z,64.34
2022-08-31T01:07:54.554Z,64.37
2022-08-31T01:08:54.544Z,64.37
2022-08-31T01:09:55.826Z,64.34
2022-08-31T01:10:54.523Z,64.37
2022-08-31T01:11:54.509Z,64.37
2022-08-31T01:12:54.511Z,64.34
2022-08-31T01:13:54.521Z,64.37
2022-08-31T01:14:54.477Z,64.37
2022-08-31T01:15:54.515Z,64.37
2022-08-31T01:16:54.457Z,64.37
2022-08-31T01:17:54.449Z,64.34
2022-08-31T01:18:54.438Z,64.37
2022-08-31T01:19:54.445Z,64.37
2022-08-31T01:20:54.417Z,64.37
2022-08-31T01:21:54.402Z,64.37
2022-08-31T01:22:54.395Z,64.37
2022-08-31T01:23:54.381Z,64.34
2022-08-31T01:24:54.395Z,64.37
2022-08-31T01:25:54.360Z,64.34
2022-08-31T01:26:55.749Z,64.37
2022-08-31T01:27:54.338Z,64.37
2022-08-31T01:28:54.350Z,64.37
2022-08-31T01:29:54.343Z,64.37
2022-08-31T01:30:54.308Z,64.34
2022-08-31T01:31:54.364Z,64.37
2022-08-31T01:32:54.287Z,64.37
2022-08-31T01:33:54.279Z,64.37
2022-08-31T01:34:54.285Z,64.37
2022-08-31T01:35:54.273Z,64.37
2022-08-31T01:36:54.266Z,64.37
2022-08-31T01:37:54.348Z,64.37
2022-08-31T01:38:54.220Z,64.37
2022-08-31T01:39:54.209Z,64.37
2022-08-31T01:40:54.202Z,64.37
2022-08-31T01:41:54.187Z,64.37
2022-08-31T01:42:54.181Z,64.37
2022-08-31T01:43:54.187Z,64.37
2022-08-31T01:44:54.159Z,64.37
2022-08-31T01:45:54.144Z,64.37
2022-08-31T01:46:54.198Z,64.37
2022-08-31T01:47:54.127Z,64.37
2022-08-31T01:48:54.142Z,64.37
2022-08-31T01:49:55.316Z,64.37
2022-08-31T01:50:54.093Z,64.37
2022-08-31T01:51:54.081Z,64.37
2022-08-31T01:52:54.072Z,64.37
2022-08-31T01:53:54.061Z,64.37
2022-08-31T01:54:54.073Z,64.37
2022-08-31T01:55:54.037Z,64.37
2022-08-31T01:56:54.031Z,64.37
2022-08-31T01:57:54.016Z,64.37
2022-08-31T01:58:54.009Z,64.37
2022-08-31T01:59:54.015Z,64.37
2022-08-31T02:00:54.026Z,64.37
2022-08-31T02:01:54.072Z,64.37
2022-08-31T02:02:53.987Z,64.37
2022-08-31T02:03:53.951Z,64.37
2022-08-31T02:04:53.943Z,64.37
2022-08-31T02:06:22.491Z,64.34
2022-08-31T02:07:22.453Z,64.37
2022-08-31T02:08:22.444Z,64.37
2022-08-31T02:09:22.431Z,64.37
2022-08-31T02:10:22.421Z,64.37
2022-08-31T02:11:22.411Z,64.37
2022-08-31T02:12:22.431Z,64.37
2022-08-31T02:13:22.390Z,64.37
2022-08-31T02:14:22.379Z,64.37
2022-08-31T02:15:22.369Z,64.37
2022-08-31T02:16:22.545Z,64.37
2022-08-31T02:17:22.346Z,64.37
2022-08-31T02:18:22.359Z,64.37
2022-08-31T02:19:22.350Z,64.37
2022-08-31T02:20:22.312Z,64.37
2022-08-31T02:21:22.304Z,64.37
2022-08-31T02:22:22.314Z,64.37
2022-08-31T02:23:22.283Z,64.37
2022-08-31T02:24:22.292Z,64.37
2022-08-31T02:25:22.261Z,64.37
2022-08-31T02:26:22.248Z,64.37
2022-08-31T02:27:22.241Z,64.37
2022-08-31T02:28:22.228Z,64.37
2022-08-31T02:29:22.239Z,64.37
2022-08-31T02:30:22.207Z,64.37
2022-08-31T02:31:22.237Z,64.37
2022-08-31T02:32:22.215Z,64.37
2022-08-31T02:33:22.175Z,64.37
2022-08-31T02:34:22.165Z,64.37
2022-08-31T02:35:22.156Z,64.37
2022-08-31T02:36:22.142Z,64.37
2022-08-31T02:37:22.139Z,64.37
2022-08-31T02:38:22.141Z,64.37
2022-08-31T02:39:22.135Z,64.37
2022-08-31T02:40:22.160Z,64.37
2022-08-31T02:41:22.088Z,64.37
2022-08-31T02:42:22.098Z,64.37
2022-08-31T02:43:25.065Z,64.37
2022-08-31T02:44:22.057Z,64.37
2022-08-31T02:45:22.048Z,64.37
2022-08-31T02:46:22.105Z,64.37
2022-08-31T02:47:22.046Z,64.37
2022-08-31T02:48:22.012Z,64.37
2022-08-31T02:49:22.002Z,64.37
2022-08-31T02:50:21.992Z,64.37
2022-08-31T02:51:22.022Z,64.37
2022-08-31T02:52:21.970Z,64.37
2022-08-31T02:53:21.962Z,64.37
2022-08-31T02:54:21.969Z,64.37
2022-08-31T02:55:22.052Z,64.37
2022-08-31T02:56:21.930Z,64.37
2022-08-31T02:57:21.919Z,64.37
2022-08-31T02:58:24.117Z,64.37
2022-08-31T02:59:21.920Z,64.37
2022-08-31T03:00:21.884Z,64.37
2022-08-31T03:01:21.932Z,64.37
2022-08-31T03:02:21.944Z,64.37
2022-08-31T03:03:22.875Z,64.37
2022-08-31T03:04:21.863Z,64.37
2022-08-31T03:05:21.833Z,64.37
2022-08-31T03:06:21.820Z,64.37
2022-08-31T03:07:21.810Z,64.37
2022-08-31T03:08:21.799Z,64.37
2022-08-31T03:09:21.861Z,64.37
2022-08-31T03:10:21.781Z,64.37
2022-08-31T03:11:21.769Z,64.37
2022-08-31T03:12:21.756Z,64.37
2022-08-31T03:13:21.748Z,64.37
2022-08-31T03:14:21.736Z,64.37
2022-08-31T03:15:21.749Z,64.37
2022-08-31T03:16:21.787Z,64.37
2022-08-31T03:17:21.707Z,64.37
2022-08-31T03:18:21.692Z,64.37
2022-08-31T03:19:21.681Z,64.37
2022-08-31T03:20:21.693Z,64.37
2022-08-31T03:21:21.660Z,64.37
2022-08-31T03:22:21.649Z,64.37
2022-08-31T03:23:21.640Z,64.37
2022-08-31T03:24:21.709Z,64.37
2022-08-31T03:25:21.646Z,64.37
2022-08-31T03:26:21.608Z,64.37
2022-08-31T03:27:21.599Z,64.37
2022-08-31T03:28:21.584Z,64.37
2022-08-31T03:29:21.577Z,64.37
2022-08-31T03:30:21.564Z,64.37
2022-08-31T03:31:21.647Z,64.37
2022-08-31T03:32:21.551Z,64.37
2022-08-31T03:33:21.536Z,64.37
2022-08-31T03:34:21.523Z,64.37
2022-08-31T03:35:21.511Z,64.37
2022-08-31T03:36:21.525Z,64.37
2022-08-31T03:37:21.512Z,64.37
2022-08-31T03:38:21.605Z,64.37
2022-08-31T03:39:21.469Z,64.37
2022-08-31T03:40:21.524Z,64.37
2022-08-31T03:41:21.566Z,64.37
2022-08-31T03:42:21.443Z,64.37
2022-08-31T03:43:21.478Z,64.47
2022-08-31T03:44:21.413Z,64.37
2022-08-31T03:45:21.406Z,64.37
2022-08-31T03:46:21.466Z,64.37
2022-08-31T03:47:21.388Z,64.37
2022-08-31T03:48:21.370Z,64.37
2022-08-31T03:49:21.394Z,64.37
2022-08-31T03:50:21.348Z,64.37
2022-08-31T03:51:21.339Z,64.37
2022-08-31T03:52:21.326Z,64.37
2022-08-31T03:53:23.079Z,64.37
2022-08-31T03:54:21.309Z,64.37
2022-08-31T03:55:21.330Z,64.37
2022-08-31T03:56:21.285Z,64.37
2022-08-31T03:57:21.279Z,64.37
2022-08-31T03:58:21.266Z,64.37
2022-08-31T03:59:21.252Z,64.37
2022-08-31T04:00:22.365Z,64.37
2022-08-31T04:01:21.290Z,64.37
2022-08-31T04:02:21.737Z,64.37
2022-08-31T04:03:21.212Z,64.37
2022-08-31T04:04:21.199Z,64.37
2022-08-31T04:05:21.201Z,64.37
2022-08-31T04:06:21.544Z,64.37
2022-08-31T04:07:21.172Z,64.37
2022-08-31T04:08:21.158Z,64.37
2022-08-31T04:09:21.146Z,64.37
2022-08-31T04:10:21.134Z,64.37
2022-08-31T04:11:40.492Z,64.37
2022-08-31T04:12:22.111Z,64.37
2022-08-31T04:13:21.111Z,64.37
2022-08-31T04:14:21.091Z,64.37
2022-08-31T04:15:21.081Z,64.37
2022-08-31T04:16:21.195Z,64.37
2022-08-31T04:17:21.061Z,64.37
2022-08-31T04:18:21.048Z,64.37
2022-08-31T04:19:21.055Z,64.37
2022-08-31T04:20:29.474Z,64.37
2022-08-31T04:21:22.015Z,64.37
2022-08-31T04:22:21.005Z,64.37
2022-08-31T04:23:20.995Z,64.37
2022-08-31T04:24:20.987Z,64.37
2022-08-31T04:25:21.662Z,64.37
2022-08-31T04:26:20.967Z,64.37
2022-08-31T04:27:21.071Z,64.37
2022-08-31T04:28:20.963Z,64.37
2022-08-31T04:29:20.933Z,64.37
2022-08-31T04:30:20.924Z,64.37
2022-08-31T04:31:22.694Z,64.37
2022-08-31T04:32:20.897Z,64.37
2022-08-31T04:33:21.089Z,64.37
2022-08-31T04:34:23.211Z,64.37
2022-08-31T04:35:23.452Z,64.37
2022-08-31T04:36:20.854Z,64.37
2022-08-31T04:37:20.846Z,64.37
2022-08-31T04:38:20.833Z,64.37
2022-08-31T04:39:20.828Z,64.37
2022-08-31T04:40:25.564Z,64.37
2022-08-31T04:41:21.822Z,64.37
2022-08-31T04:42:20.789Z,64.37
2022-08-31T04:43:20.790Z,64.37
2022-08-31T04:44:20.770Z,64.37
2022-08-31T04:45:20.776Z,64.37
2022-08-31T04:46:21.600Z,64.37
2022-08-31T04:47:20.736Z,64.37
2022-08-31T04:48:20.728Z,64.37
2022-08-31T04:49:20.723Z,64.37
2022-08-31T04:50:20.703Z,64.37
2022-08-31T04:51:20.698Z,64.37
2022-08-31T04:52:28.099Z,64.37
2022-08-31T04:53:21.671Z,64.37
2022-08-31T04:54:20.662Z,64.37
2022-08-31T04:55:20.658Z,64.37
2022-08-31T04:56:20.640Z,64.37
2022-08-31T04:57:21.490Z,64.37
2022-08-31T04:58:22.837Z,64.37
2022-08-31T04:59:20.610Z,64.37
2022-08-31T05:00:20.596Z,64.37
2022-08-31T05:01:20.668Z,64.37
2022-08-31T05:02:20.626Z,64.37
2022-08-31T05:03:22.262Z,64.47
2022-08-31T05:04:20.554Z,64.47
2022-08-31T05:05:24.999Z,64.37
2022-08-31T05:06:23.722Z,64.37
2022-08-31T05:07:20.523Z,64.37
2022-08-31T05:08:20.511Z,64.37
2022-08-31T05:09:25.552Z,64.47
2022-08-31T05:10:20.491Z,64.37
2022-08-31T05:11:24.741Z,64.37
2022-08-31T05:12:20.470Z,64.37
2022-08-31T05:13:20.501Z,64.37
2022-08-31T05:14:20.446Z,64.47
2022-08-31T05:15:20.436Z,64.37
2022-08-31T05:16:20.517Z,64.37
2022-08-31T05:17:20.418Z,64.47
2022-08-31T05:18:20.406Z,64.37
2022-08-31T05:19:20.395Z,64.47
2022-08-31T05:20:20.385Z,64.47
2022-08-31T05:21:20.398Z,64.47
2022-08-31T05:22:20.360Z,64.37
2022-08-31T05:23:20.614Z,64.47
2022-08-31T05:24:20.341Z,64.47
2022-08-31T05:25:20.333Z,64.47
2022-08-31T05:26:24.662Z,64.47
2022-08-31T05:27:21.308Z,64.37
2022-08-31T05:28:20.334Z,64.47
2022-08-31T05:29:20.291Z,64.47
2022-08-31T05:30:20.277Z,64.47
2022-08-31T05:31:20.336Z,64.47
2022-08-31T05:32:20.254Z,64.47
2022-08-31T05:33:20.435Z,64.37
2022-08-31T05:34:20.275Z,64.47
2022-08-31T05:35:20.225Z,64.47
2022-08-31T05:36:20.234Z,64.47
2022-08-31T05:37:20.204Z,64.47
2022-08-31T05:38:20.189Z,64.47
2022-08-31T05:39:20.178Z,64.47
2022-08-31T05:40:20.225Z,64.47
2022-08-31T05:41:20.182Z,64.47
2022-08-31T05:42:20.146Z,64.47
2022-08-31T05:43:20.432Z,64.47
2022-08-31T05:44:20.124Z,64.47
2022-08-31T05:45:20.118Z,64.47
2022-08-31T05:46:20.190Z,64.47
2022-08-31T05:47:20.092Z,64.47
2022-08-31T05:48:20.083Z,64.47
2022-08-31T05:49:20.070Z,64.47
2022-08-31T05:50:20.061Z,64.47
2022-08-31T05:51:20.076Z,64.47
2022-08-31T05:52:20.038Z,64.47
2022-08-31T05:53:21.051Z,64.47
2022-08-31T05:54:20.016Z,64.37
2022-08-31T05:55:20.008Z,64.37
2022-08-31T05:56:19.997Z,64.47
2022-08-31T05:57:23.335Z,64.47
2022-08-31T05:58:20.998Z,64.47
2022-08-31T05:59:19.963Z,64.47
2022-08-31T06:00:19.960Z,64.47
2022-08-31T06:01:20.169Z,64.37
2022-08-31T06:02:20.017Z,64.37
2022-08-31T06:03:20.100Z,64.37
2022-08-31T06:04:19.913Z,64.37
2022-08-31T06:05:19.951Z,64.37
2022-08-31T06:06:19.895Z,64.37
2022-08-31T06:07:19.877Z,64.47
2022-08-31T06:08:19.895Z,64.37
2022-08-31T06:09:20.857Z,64.37
2022-08-31T06:10:19.849Z,64.37
2022-08-31T06:11:19.859Z,64.47
2022-08-31T06:12:19.827Z,64.47
2022-08-31T06:13:20.025Z,64.37
2022-08-31T06:14:19.802Z,64.37
2022-08-31T06:15:19.793Z,64.37
2022-08-31T06:16:19.898Z,64.37
2022-08-31T06:17:19.770Z,64.37
2022-08-31T06:18:19.786Z,64.37
2022-08-31T06:19:19.748Z,64.37
2022-08-31T06:20:19.739Z,64.37
2022-08-31T06:21:19.729Z,64.37
2022-08-31T06:22:19.719Z,64.37
2022-08-31T06:23:20.002Z,64.37
2022-08-31T06:24:19.699Z,64.37
2022-08-31T06:25:19.684Z,64.37
2022-08-31T06:26:19.698Z,64.37
2022-08-31T06:27:19.669Z,64.37
2022-08-31T06:28:19.655Z,64.37
2022-08-31T06:29:19.641Z,64.37
2022-08-31T06:30:19.633Z,64.37
2022-08-31T06:31:19.675Z,64.47
2022-08-31T06:32:19.614Z,64.47
2022-08-31T06:33:19.738Z,64.47
2022-08-31T06:34:19.588Z,64.37
2022-08-31T06:35:19.584Z,64.37
2022-08-31T06:36:19.594Z,64.37
2022-08-31T06:37:19.556Z,64.37
2022-08-31T06:38:19.548Z,64.27
2022-08-31T06:39:19.539Z,64.27
2022-08-31T06:40:19.618Z,64.27
2022-08-31T06:41:19.538Z,64.27
2022-08-31T06:42:19.509Z,64.27
2022-08-31T06:43:19.698Z,64.27
2022-08-31T06:44:19.486Z,64.27
2022-08-31T06:45:19.471Z,64.17
2022-08-31T06:46:19.605Z,64.17
2022-08-31T06:47:23.510Z,64.17
2022-08-31T06:48:19.439Z,64.17
2022-08-31T06:49:19.426Z,64.17
2022-08-31T06:50:19.425Z,64.17
2022-08-31T06:51:19.432Z,64.17
2022-08-31T06:52:19.394Z,64.17
2022-08-31T06:53:19.582Z,64.17
2022-08-31T06:54:32.929Z,64.17
2022-08-31T06:55:20.361Z,64.17
2022-08-31T06:56:21.031Z,64.17
2022-08-31T06:57:19.340Z,64.17
2022-08-31T06:58:19.340Z,64.17
2022-08-31T06:59:19.403Z,64.17
2022-08-31T07:00:19.320Z,64.17
2022-08-31T07:01:26.103Z,64.17
2022-08-31T07:02:20.430Z,64.07
2022-08-31T07:03:19.451Z,64.07
2022-08-31T07:04:19.286Z,64.07
2022-08-31T07:05:20.132Z,64.07
2022-08-31T07:06:20.330Z,64.07
2022-08-31T07:07:19.235Z,64.07
2022-08-31T07:08:19.249Z,64.07
2022-08-31T07:09:19.244Z,64.07
2022-08-31T07:10:19.204Z,63.97
2022-08-31T07:11:19.227Z,63.97
2022-08-31T07:12:19.204Z,63.97
2022-08-31T07:13:19.434Z,64.07
2022-08-31T07:14:19.177Z,63.97
2022-08-31T07:15:19.147Z,63.97
2022-08-31T07:16:19.196Z,63.97
2022-08-31T07:17:19.181Z,63.97
2022-08-31T07:18:19.127Z,63.97
2022-08-31T07:19:19.165Z,63.97
2022-08-31T07:20:19.113Z,63.97
2022-08-31T07:21:19.119Z,63.97
2022-08-31T07:22:19.082Z,63.97
2022-08-31T07:23:19.261Z,63.97
2022-08-31T07:24:19.074Z,63.97
2022-08-31T07:25:19.070Z,63.97
2022-08-31T07:26:19.126Z,63.97
2022-08-31T07:27:19.023Z,63.97
2022-08-31T07:28:19.031Z,63.97
2022-08-31T07:29:19.013Z,63.97
2022-08-31T07:30:18.989Z,63.94
2022-08-31T07:31:19.078Z,63.94
2022-08-31T07:32:18.967Z,63.84
2022-08-31T07:33:19.081Z,63.84
2022-08-31T07:34:18.946Z,63.87
2022-08-31T07:35:18.936Z,63.87
2022-08-31T07:36:18.929Z,63.87
2022-08-31T07:37:18.918Z,63.87
2022-08-31T07:38:18.927Z,63.84
2022-08-31T07:39:18.890Z,63.84
2022-08-31T07:40:18.948Z,63.84
2022-08-31T07:41:18.870Z,63.87
2022-08-31T07:42:18.862Z,63.94
2022-08-31T07:43:19.027Z,63.84
2022-08-31T07:44:18.839Z,63.84
2022-08-31T07:45:18.839Z,63.87
2022-08-31T07:46:18.941Z,63.94
2022-08-31T07:47:18.807Z,63.97
2022-08-31T07:48:18.797Z,64.24
2022-08-31T07:49:18.784Z,64.27
2022-08-31T07:50:18.777Z,64.14
2022-08-31T07:51:18.762Z,64.14
2022-08-31T07:52:18.781Z,64.14
2022-08-31T07:53:18.825Z,64.14
2022-08-31T07:54:18.734Z,64.07
2022-08-31T07:55:18.721Z,64.04
2022-08-31T07:56:18.738Z,64.04
2022-08-31T07:57:18.699Z,64.04
2022-08-31T07:58:18.688Z,64.07
2022-08-31T07:59:18.712Z,64.04
2022-08-31T08:00:20.804Z,64.04
2022-08-31T08:01:18.794Z,64.14
2022-08-31T08:02:18.801Z,64.14
2022-08-31T08:03:18.879Z,64.14
2022-08-31T08:04:18.625Z,64.17
2022-08-31T08:05:18.612Z,64.24
2022-08-31T08:06:18.626Z,64.24
2022-08-31T08:07:18.591Z,64.47
2022-08-31T08:08:18.581Z,64.54
2022-08-31T08:09:24.011Z,64.57
2022-08-31T08:10:19.558Z,64.44
2022-08-31T08:11:18.578Z,64.54
2022-08-31T08:12:18.537Z,64.44
2022-08-31T08:13:18.792Z,64.44
2022-08-31T08:14:18.516Z,64.34
2022-08-31T08:15:18.509Z,64.24
2022-08-31T08:16:18.555Z,64.14
2022-08-31T08:17:18.523Z,64.14
2022-08-31T08:18:18.472Z,64.14
2022-08-31T08:19:18.464Z,64.14
2022-08-31T08:20:18.452Z,64.04
2022-08-31T08:21:20.114Z,64.14
2022-08-31T08:22:35.661Z,64.14
2022-08-31T08:23:27.896Z,64.14
2022-08-31T08:24:19.408Z,64.14
2022-08-31T08:25:18.410Z,64.24
2022-08-31T08:26:21.363Z,64.24
2022-08-31T08:27:18.381Z,64.24
2022-08-31T08:28:41.016Z,64.24
2022-08-31T08:29:19.359Z,64.24
2022-08-31T08:30:18.344Z,64.34
2022-08-31T08:31:18.558Z,64.44
2022-08-31T08:32:18.331Z,64.34
2022-08-31T08:33:18.865Z,64.54
2022-08-31T08:34:18.302Z,64.54
2022-08-31T08:35:18.294Z,64.54
2022-08-31T08:36:18.572Z,64.44
2022-08-31T08:37:24.050Z,64.44
2022-08-31T08:38:19.258Z,64.44
2022-08-31T08:39:18.251Z,64.54
2022-08-31T08:40:18.272Z,64.44
2022-08-31T08:41:18.235Z,64.44
2022-08-31T08:42:18.242Z,64.44
2022-08-31T08:43:18.397Z,64.34
2022-08-31T08:44:18.385Z,64.44
2022-08-31T08:45:18.184Z,64.44
2022-08-31T08:46:34.040Z,64.44
2022-08-31T08:47:20.737Z,64.44
2022-08-31T08:48:18.156Z,64.44
2022-08-31T08:49:18.181Z,64.44
2022-08-31T08:50:18.130Z,64.44
2022-08-31T08:51:18.133Z,64.44
2022-08-31T08:52:18.110Z,64.44
2022-08-31T08:53:18.290Z,64.44
2022-08-31T08:54:18.089Z,64.44
2022-08-31T08:55:18.105Z,64.44
2022-08-31T08:56:32.713Z,64.54
2022-08-31T08:57:19.054Z,64.54
2022-08-31T08:58:18.044Z,64.54
2022-08-31T08:59:20.044Z,64.54
2022-08-31T09:00:18.047Z,64.54
2022-08-31T09:01:18.094Z,64.54
2022-08-31T09:02:18.074Z,64.54
2022-08-31T09:03:18.181Z,64.44
2022-08-31T09:04:17.981Z,64.54
2022-08-31T09:05:18.000Z,64.54
2022-08-31T09:06:17.959Z,64.44
2022-08-31T09:07:17.950Z,64.44
2022-08-31T09:08:17.940Z,64.44
2022-08-31T09:09:17.929Z,64.44
2022-08-31T09:10:17.953Z,64.44
2022-08-31T09:11:17.949Z,64.44
2022-08-31T09:12:17.895Z,64.44
2022-08-31T09:13:18.074Z,64.44
2022-08-31T09:14:17.872Z,64.44
2022-08-31T09:15:17.865Z,64.54
2022-08-31T09:16:18.005Z,64.54
2022-08-31T09:17:17.862Z,64.64
2022-08-31T09:18:17.875Z,64.64
2022-08-31T09:19:17.821Z,64.64
2022-08-31T09:20:17.922Z,64.74
2022-08-31T09:21:17.798Z,64.74
2022-08-31T09:22:17.787Z,64.74
2022-08-31T09:23:17.949Z,64.84
2022-08-31T09:24:17.795Z,64.84
2022-08-31T09:25:17.757Z,64.74
2022-08-31T09:26:17.743Z,64.74
2022-08-31T09:27:17.737Z,64.74
2022-08-31T09:28:17.723Z,64.74
2022-08-31T09:29:17.742Z,64.74
2022-08-31T09:30:17.816Z,64.64
2022-08-31T09:31:17.793Z,64.54
2022-08-31T09:32:17.695Z,64.54
2022-08-31T09:33:17.809Z,64.54
2022-08-31T09:34:17.681Z,64.54
2022-08-31T09:35:17.648Z,64.64
2022-08-31T09:36:17.637Z,64.64
2022-08-31T09:37:17.632Z,64.64
2022-08-31T09:38:17.615Z,64.64
2022-08-31T09:39:17.645Z,64.64
2022-08-31T09:40:20.008Z,64.74
2022-08-31T09:41:18.583Z,64.74
2022-08-31T09:42:17.572Z,64.64
2022-08-31T09:43:18.158Z,64.64
2022-08-31T09:44:17.551Z,64.74
2022-08-31T09:45:17.567Z,64.64
2022-08-31T09:46:17.611Z,64.74
2022-08-31T09:47:17.521Z,64.74
2022-08-31T09:48:17.507Z,64.74
2022-08-31T09:49:17.497Z,64.74
2022-08-31T09:50:17.519Z,64.74
2022-08-31T09:51:17.480Z,64.64
2022-08-31T09:52:17.465Z,64.64
2022-08-31T09:53:17.515Z,64.64
2022-08-31T09:54:17.448Z,64.74
2022-08-31T09:55:17.469Z,64.64
2022-08-31T09:56:17.426Z,64.64
2022-08-31T09:57:17.414Z,64.64
2022-08-31T09:58:17.426Z,64.64
2022-08-31T09:59:17.402Z,64.64
2022-08-31T10:00:17.379Z,64.74
2022-08-31T10:01:17.404Z,64.64
2022-08-31T10:02:17.364Z,64.74
2022-08-31T10:03:17.397Z,64.74
2022-08-31T10:04:17.337Z,64.64
2022-08-31T10:05:17.371Z,64.74
2022-08-31T10:06:17.315Z,64.74
2022-08-31T10:07:17.304Z,64.74
2022-08-31T10:08:19.581Z,64.74
2022-08-31T10:09:17.285Z,64.74
2022-08-31T10:10:30.454Z,64.64
2022-08-31T10:11:18.262Z,64.64
2022-08-31T10:12:17.252Z,64.64
2022-08-31T10:13:17.328Z,64.54
2022-08-31T10:14:17.257Z,64.54
2022-08-31T10:15:17.217Z,64.54
2022-08-31T10:16:17.308Z,64.54
2022-08-31T10:17:17.198Z,64.54
2022-08-31T10:18:17.186Z,64.54
2022-08-31T10:19:17.202Z,64.54
2022-08-31T10:20:17.167Z,64.64
2022-08-31T10:21:17.153Z,64.64
2022-08-31T10:22:17.147Z,64.64
2022-08-31T10:23:17.171Z,64.64
2022-08-31T10:24:17.165Z,64.64
2022-08-31T10:25:17.110Z,64.64
2022-08-31T10:26:17.102Z,64.64
2022-08-31T10:27:17.090Z,64.64
2022-08-31T10:28:17.081Z,64.64
2022-08-31T10:29:23.162Z,64.74
2022-08-31T10:30:18.088Z,64.84
2022-08-31T10:31:17.138Z,64.74
2022-08-31T10:32:17.038Z,64.84
2022-08-31T10:33:17.024Z,64.84
2022-08-31T10:34:17.014Z,64.84
2022-08-31T10:35:17.030Z,64.84
2022-08-31T10:36:16.995Z,64.84
2022-08-31T10:37:16.986Z,64.84
2022-08-31T10:38:20.108Z,64.84
2022-08-31T10:39:16.961Z,64.84
2022-08-31T10:40:17.049Z,64.74
2022-08-31T10:41:16.939Z,64.74
2022-08-31T10:42:16.931Z,64.74
2022-08-31T10:43:16.918Z,64.74
2022-08-31T10:44:16.910Z,64.74
2022-08-31T10:45:18.867Z,64.74
2022-08-31T10:46:16.964Z,64.74
2022-08-31T10:47:32.527Z,64.74
2022-08-31T10:48:17.864Z,64.64
2022-08-31T10:49:16.853Z,64.64
2022-08-31T10:50:16.845Z,64.64
2022-08-31T10:51:16.860Z,64.64
2022-08-31T10:52:16.827Z,64.64
2022-08-31T10:53:16.812Z,64.64
2022-08-31T10:54:16.801Z,64.64
2022-08-31T10:55:16.793Z,64.64
2022-08-31T10:56:16.809Z,64.64
2022-08-31T10:57:21.350Z,64.64
2022-08-31T10:58:17.759Z,64.64
2022-08-31T10:59:16.745Z,64.64
2022-08-31T11:00:16.736Z,64.64
2022-08-31T11:01:16.803Z,64.64
2022-08-31T11:02:16.715Z,64.64
2022-08-31T11:03:16.706Z,64.64
2022-08-31T11:04:16.768Z,64.64
2022-08-31T11:05:16.681Z,64.64
2022-08-31T11:06:16.672Z,64.64
2022-08-31T11:07:16.686Z,64.64
2022-08-31T11:08:16.651Z,64.64
2022-08-31T11:09:16.639Z,64.64
2022-08-31T11:10:16.630Z,64.64
2022-08-31T11:11:16.617Z,64.64
2022-08-31T11:12:16.634Z,64.64
2022-08-31T11:13:16.596Z,64.64
2022-08-31T11:14:16.592Z,64.64
2022-08-31T11:15:16.574Z,64.64
2022-08-31T11:16:16.639Z,64.64
2022-08-31T11:17:16.592Z,64.64
2022-08-31T11:18:16.543Z,64.64
2022-08-31T11:19:16.531Z,64.74
2022-08-31T11:20:16.530Z,64.84
2022-08-31T11:21:16.511Z,64.84
2022-08-31T11:22:16.502Z,64.84
2022-08-31T11:23:16.533Z,64.84
2022-08-31T11:24:16.480Z,64.84
2022-08-31T11:25:16.466Z,64.74
2022-08-31T11:26:16.459Z,64.74
2022-08-31T11:27:16.447Z,64.74
2022-08-31T11:28:16.439Z,64.74
2022-08-31T11:29:16.451Z,64.74
2022-08-31T11:30:16.414Z,64.84
2022-08-31T11:31:16.425Z,64.84
2022-08-31T11:32:16.392Z,64.84
2022-08-31T11:33:16.381Z,64.84
2022-08-31T11:34:17.503Z,64.74
2022-08-31T11:35:16.386Z,64.74
2022-08-31T11:36:16.353Z,64.74
2022-08-31T11:37:16.338Z,64.74
2022-08-31T11:38:16.328Z,64.74
2022-08-31T11:39:16.321Z,64.74
2022-08-31T11:40:16.402Z,64.74
2022-08-31T11:41:16.295Z,64.84
2022-08-31T11:42:16.288Z,64.84
2022-08-31T11:43:16.283Z,64.84
2022-08-31T11:44:16.271Z,64.84
2022-08-31T11:45:16.253Z,64.84
2022-08-31T11:46:17.584Z,64.94
2022-08-31T11:47:16.232Z,64.94
2022-08-31T11:48:16.222Z,64.94
2022-08-31T11:49:16.209Z,65.04
2022-08-31T11:50:16.201Z,64.94
2022-08-31T11:51:16.193Z,64.84
2022-08-31T11:52:16.204Z,64.74
2022-08-31T11:53:16.167Z,64.74
2022-08-31T11:54:16.158Z,64.84
2022-08-31T11:55:16.146Z,64.84
2022-08-31T11:56:16.137Z,64.84
2022-08-31T11:57:16.174Z,64.84
2022-08-31T11:58:18.555Z,64.94
2022-08-31T11:59:17.101Z,64.94
2022-08-31T12:00:16.101Z,64.94
2022-08-31T12:01:16.081Z,64.94
2022-08-31T12:02:16.105Z,64.94
2022-08-31T12:03:16.084Z,64.94
2022-08-31T12:04:20.494Z,64.94
2022-08-31T12:05:17.091Z,64.94
2022-08-31T12:06:16.032Z,64.94
2022-08-31T12:07:16.016Z,64.94
2022-08-31T12:08:16.009Z,64.94
2022-08-31T12:09:16.021Z,64.94
2022-08-31T12:10:15.988Z,65.04
2022-08-31T12:11:15.972Z,65.04
2022-08-31T12:12:15.962Z,64.94
2022-08-31T12:13:15.953Z,64.84
2022-08-31T12:14:15.971Z,64.94
2022-08-31T12:15:15.969Z,65.04
2022-08-31T12:16:15.978Z,65.14
2022-08-31T12:17:15.908Z,65.04
2022-08-31T12:18:15.898Z,65.14
2022-08-31T12:19:15.887Z,65.04
2022-08-31T12:20:15.879Z,64.94
2022-08-31T12:21:15.908Z,64.94
2022-08-31T12:22:15.855Z,64.84
2022-08-31T12:23:29.993Z,64.84
2022-08-31T12:24:18.805Z,64.84
2022-08-31T12:25:15.822Z,64.84
2022-08-31T12:26:15.815Z,64.84
2022-08-31T12:27:15.844Z,64.84
2022-08-31T12:28:15.790Z,64.84
2022-08-31T12:29:15.781Z,64.94
2022-08-31T12:30:15.776Z,64.94
2022-08-31T12:31:15.817Z,64.84
2022-08-31T12:32:15.750Z,64.84
2022-08-31T12:33:15.764Z,64.94
2022-08-31T12:34:15.726Z,64.94
2022-08-31T12:35:15.719Z,64.94
2022-08-31T12:36:15.704Z,64.94
2022-08-31T12:37:15.696Z,64.94
2022-08-31T12:38:15.712Z,64.94
2022-08-31T12:39:15.696Z,64.94
2022-08-31T12:40:15.725Z,64.94
2022-08-31T12:41:15.650Z,65.04
2022-08-31T12:42:15.642Z,65.04
2022-08-31T12:43:15.686Z,65.04
2022-08-31T12:44:15.645Z,64.94
2022-08-31T12:45:15.647Z,65.14
2022-08-31T12:46:15.637Z,65.23
2022-08-31T12:47:15.593Z,65.34
2022-08-31T12:48:15.576Z,65.34
2022-08-31T12:49:15.567Z,65.34
2022-08-31T12:50:17.756Z,65.14
2022-08-31T12:51:15.570Z,65.14
2022-08-31T12:52:15.535Z,65.14
2022-08-31T12:53:15.523Z,65.14